sensor_id;sensor_type;location;lat;lon;timestamp;temperature;humidity
15239;DHT22;7722;53.274;9.500;2022-09-06T00:01:16;16.80;94.50
15239;DHT22;7722;53.274;9.500;2022-09-06T00:03:44;16.80;94.50
15239;DHT22;7722;53.274;9.500;2022-09-06T00:06:13;16.70;94.60
15239;DHT22;7722;53.274;9.500;2022-09-06T00:08:42;16.70;94.80
15239;DHT22;7722;53.274;9.500;2022-09-06T00:11:09;16.70;94.80
15239;DHT22;7722;53.274;9.500;2022-09-06T00:13:37;16.60;94.80
15239;DHT22;7722;53.274;9.500;2022-09-06T00:16:06;16.70;94.70
15239;DHT22;7722;53.274;9.500;2022-09-06T00:18:34;16.70;94.70
15239;DHT22;7722;53.274;9.500;2022-09-06T00:21:02;16.70;94.60
15239;DHT22;7722;53.274;9.500;2022-09-06T00:23:29;16.80;94.60
15239;DHT22;7722;53.274;9.500;2022-09-06T00:26:01;16.80;94.70
15239;DHT22;7722;53.274;9.500;2022-09-06T00:28:28;16.80;94.70
15239;DHT22;7722;53.274;9.500;2022-09-06T00:30:56;16.80;94.50
15239;DHT22;7722;53.274;9.500;2022-09-06T00:33:23;16.80;94.50
15239;DHT22;7722;53.274;9.500;2022-09-06T00:35:57;16.70;94.60
15239;DHT22;7722;53.274;9.500;2022-09-06T00:38:25;16.70;94.60
15239;DHT22;7722;53.274;9.500;2022-09-06T00:40:52;16.70;94.60
15239;DHT22;7722;53.274;9.500;2022-09-06T00:43:20;16.70;94.70
15239;DHT22;7722;53.274;9.500;2022-09-06T00:45:47;16.70;94.70
15239;DHT22;7722;53.274;9.500;2022-09-06T00:48:14;16.70;94.90
15239;DHT22;7722;53.274;9.500;2022-09-06T00:50:43;16.70;94.90
15239;DHT22;7722;53.274;9.500;2022-09-06T00:53:12;16.60;94.90
15239;DHT22;7722;53.274;9.500;2022-09-06T00:55:40;16.60;95.00
15239;DHT22;7722;53.274;9.500;2022-09-06T00:58:08;16.60;95.00
15239;DHT22;7722;53.274;9.500;2022-09-06T01:00:35;16.60;95.00
15239;DHT22;7722;53.274;9.500;2022-09-06T01:03:03;16.60;94.90
15239;DHT22;7722;53.274;9.500;2022-09-06T01:05:38;16.60;94.90
15239;DHT22;7722;53.274;9.500;2022-09-06T01:08:15;16.60;95.00
15239;DHT22;7722;53.274;9.500;2022-09-06T01:11:19;16.60;95.00
15239;DHT22;7722;53.274;9.500;2022-09-06T01:13:57;16.60;95.00
15239;DHT22;7722;53.274;9.500;2022-09-06T01:16:33;16.60;95.10
15239;DHT22;7722;53.274;9.500;2022-09-06T01:19:24;16.50;95.30
15239;DHT22;7722;53.274;9.500;2022-09-06T01:22:05;16.50;95.20
15239;DHT22;7722;53.274;9.500;2022-09-06T01:24:53;16.40;95.40
15239;DHT22;7722;53.274;9.500;2022-09-06T01:30:42;16.40;95.40
15239;DHT22;7722;53.274;9.500;2022-09-06T01:33:18;16.40;95.50
15239;DHT22;7722;53.274;9.500;2022-09-06T01:35:50;16.50;95.30
15239;DHT22;7722;53.274;9.500;2022-09-06T01:38:19;16.50;95.30
15239;DHT22;7722;53.274;9.500;2022-09-06T01:40:46;16.50;95.30
15239;DHT22;7722;53.274;9.500;2022-09-06T01:43:29;16.40;95.40
15239;DHT22;7722;53.274;9.500;2022-09-06T01:46:02;16.40;95.40
15239;DHT22;7722;53.274;9.500;2022-09-06T01:48:39;16.30;95.60
15239;DHT22;7722;53.274;9.500;2022-09-06T01:51:19;16.40;95.50
15239;DHT22;7722;53.274;9.500;2022-09-06T01:54:04;16.40;95.60
15239;DHT22;7722;53.274;9.500;2022-09-06T01:56:38;16.30;95.60
15239;DHT22;7722;53.274;9.500;2022-09-06T01:59:28;16.30;95.60
15239;DHT22;7722;53.274;9.500;2022-09-06T02:02:02;16.30;95.40
15239;DHT22;7722;53.274;9.500;2022-09-06T02:04:37;16.30;95.40
15239;DHT22;7722;53.274;9.500;2022-09-06T02:07:12;16.30;95.50
15239;DHT22;7722;53.274;9.500;2022-09-06T02:09:43;16.30;95.50
15239;DHT22;7722;53.274;9.500;2022-09-06T02:12:13;16.30;95.40
15239;DHT22;7722;53.274;9.500;2022-09-06T02:14:47;16.30;95.30
15239;DHT22;7722;53.274;9.500;2022-09-06T02:17:19;16.30;95.40
15239;DHT22;7722;53.274;9.500;2022-09-06T02:19:50;16.30;95.40
15239;DHT22;7722;53.274;9.500;2022-09-06T02:22:21;16.30;95.30
15239;DHT22;7722;53.274;9.500;2022-09-06T02:24:50;16.30;95.40
15239;DHT22;7722;53.274;9.500;2022-09-06T02:27:19;16.20;95.50
15239;DHT22;7722;53.274;9.500;2022-09-06T02:29:47;16.20;95.70
15239;DHT22;7722;53.274;9.500;2022-09-06T02:32:18;16.10;95.70
15239;DHT22;7722;53.274;9.500;2022-09-06T02:34:46;16.10;95.60
15239;DHT22;7722;53.274;9.500;2022-09-06T02:37:14;16.10;95.70
15239;DHT22;7722;53.274;9.500;2022-09-06T02:39:42;16.20;95.70
15239;DHT22;7722;53.274;9.500;2022-09-06T02:42:11;16.10;95.70
15239;DHT22;7722;53.274;9.500;2022-09-06T02:44:39;16.20;95.50
15239;DHT22;7722;53.274;9.500;2022-09-06T02:47:07;16.20;95.50
15239;DHT22;7722;53.274;9.500;2022-09-06T02:49:34;16.20;95.50
15239;DHT22;7722;53.274;9.500;2022-09-06T02:52:02;16.10;95.50
15239;DHT22;7722;53.274;9.500;2022-09-06T02:54:29;16.20;95.40
15239;DHT22;7722;53.274;9.500;2022-09-06T02:56:57;16.20;95.40
15239;DHT22;7722;53.274;9.500;2022-09-06T02:59:24;16.20;95.30
15239;DHT22;7722;53.274;9.500;2022-09-06T03:01:52;16.20;95.30
15239;DHT22;7722;53.274;9.500;2022-09-06T03:04:20;16.10;95.30
15239;DHT22;7722;53.274;9.500;2022-09-06T03:06:47;16.10;95.40
15239;DHT22;7722;53.274;9.500;2022-09-06T03:09:14;16.10;95.30
15239;DHT22;7722;53.274;9.500;2022-09-06T03:11:42;16.10;95.40
15239;DHT22;7722;53.274;9.500;2022-09-06T03:14:09;16.00;95.20
15239;DHT22;7722;53.274;9.500;2022-09-06T03:16:36;16.00;95.40
15239;DHT22;7722;53.274;9.500;2022-09-06T03:19:04;16.00;95.70
15239;DHT22;7722;53.274;9.500;2022-09-06T03:21:32;16.00;95.30
15239;DHT22;7722;53.274;9.500;2022-09-06T03:23:59;16.00;95.40
15239;DHT22;7722;53.274;9.500;2022-09-06T03:26:26;16.10;95.20
15239;DHT22;7722;53.274;9.500;2022-09-06T03:28:55;16.00;95.20
15239;DHT22;7722;53.274;9.500;2022-09-06T03:31:22;16.00;95.10
15239;DHT22;7722;53.274;9.500;2022-09-06T03:33:49;16.00;95.20
15239;DHT22;7722;53.274;9.500;2022-09-06T03:36:16;16.00;95.20
15239;DHT22;7722;53.274;9.500;2022-09-06T03:38:45;16.00;95.20
15239;DHT22;7722;53.274;9.500;2022-09-06T03:41:12;16.00;95.10
15239;DHT22;7722;53.274;9.500;2022-09-06T03:43:39;16.00;95.10
15239;DHT22;7722;53.274;9.500;2022-09-06T03:46:06;15.90;95.20
15239;DHT22;7722;53.274;9.500;2022-09-06T03:48:33;16.00;94.90
15239;DHT22;7722;53.274;9.500;2022-09-06T03:51:00;16.00;94.90
15239;DHT22;7722;53.274;9.500;2022-09-06T03:56:04;15.90;95.30
15239;DHT22;7722;53.274;9.500;2022-09-06T03:58:31;15.90;94.80
15239;DHT22;7722;53.274;9.500;2022-09-06T04:01:00;15.90;94.90
15239;DHT22;7722;53.274;9.500;2022-09-06T04:03:28;15.90;94.50
15239;DHT22;7722;53.274;9.500;2022-09-06T04:05:55;16.00;94.50
15239;DHT22;7722;53.274;9.500;2022-09-06T04:08:22;16.00;94.40
15239;DHT22;7722;53.274;9.500;2022-09-06T04:10:49;16.00;94.20
15239;DHT22;7722;53.274;9.500;2022-09-06T04:13:18;16.00;94.00
15239;DHT22;7722;53.274;9.500;2022-09-06T04:15:46;16.00;94.00
15239;DHT22;7722;53.274;9.500;2022-09-06T04:18:14;16.00;94.00
15239;DHT22;7722;53.274;9.500;2022-09-06T04:20:41;15.90;94.00
15239;DHT22;7722;53.274;9.500;2022-09-06T04:23:08;15.90;94.00
15239;DHT22;7722;53.274;9.500;2022-09-06T04:25:35;15.90;93.90
15239;DHT22;7722;53.274;9.500;2022-09-06T04:28:02;15.80;93.90
15239;DHT22;7722;53.274;9.500;2022-09-06T04:30:31;15.80;94.10
15239;DHT22;7722;53.274;9.500;2022-09-06T04:32:58;15.80;94.00
15239;DHT22;7722;53.274;9.500;2022-09-06T04:35:25;15.70;94.00
15239;DHT22;7722;53.274;9.500;2022-09-06T04:37:52;15.70;94.10
15239;DHT22;7722;53.274;9.500;2022-09-06T04:40:19;15.70;94.00
15239;DHT22;7722;53.274;9.500;2022-09-06T04:42:46;15.80;93.80
15239;DHT22;7722;53.274;9.500;2022-09-06T04:45:13;15.80;93.70
15239;DHT22;7722;53.274;9.500;2022-09-06T04:47:41;15.70;93.80
15239;DHT22;7722;53.274;9.500;2022-09-06T04:50:09;15.70;93.70
15239;DHT22;7722;53.274;9.500;2022-09-06T04:52:36;15.70;93.70
15239;DHT22;7722;53.274;9.500;2022-09-06T04:55:03;15.70;93.60
15239;DHT22;7722;53.274;9.500;2022-09-06T04:57:31;15.70;93.50
15239;DHT22;7722;53.274;9.500;2022-09-06T04:59:58;15.70;93.50
15239;DHT22;7722;53.274;9.500;2022-09-06T05:02:25;15.70;93.30
15239;DHT22;7722;53.274;9.500;2022-09-06T05:04:53;15.80;93.20
15239;DHT22;7722;53.274;9.500;2022-09-06T05:07:21;15.80;93.10
15239;DHT22;7722;53.274;9.500;2022-09-06T05:09:48;15.80;92.80
15239;DHT22;7722;53.274;9.500;2022-09-06T05:12:15;15.80;92.80
15239;DHT22;7722;53.274;9.500;2022-09-06T05:14:42;15.80;92.70
15239;DHT22;7722;53.274;9.500;2022-09-06T05:17:09;15.90;92.60
15239;DHT22;7722;53.274;9.500;2022-09-06T05:19:39;15.90;92.70
15239;DHT22;7722;53.274;9.500;2022-09-06T05:22:07;15.80;92.40
15239;DHT22;7722;53.274;9.500;2022-09-06T05:24:36;15.90;92.30
15239;DHT22;7722;53.274;9.500;2022-09-06T05:27:03;15.90;92.10
15239;DHT22;7722;53.274;9.500;2022-09-06T05:29:32;15.80;92.00
15239;DHT22;7722;53.274;9.500;2022-09-06T05:31:59;15.90;91.90
15239;DHT22;7722;53.274;9.500;2022-09-06T05:34:26;15.90;92.00
15239;DHT22;7722;53.274;9.500;2022-09-06T05:36:53;15.90;91.90
15239;DHT22;7722;53.274;9.500;2022-09-06T05:39:21;15.90;91.80
15239;DHT22;7722;53.274;9.500;2022-09-06T05:41:49;15.90;91.70
15239;DHT22;7722;53.274;9.500;2022-09-06T05:44:16;15.90;91.80
15239;DHT22;7722;53.274;9.500;2022-09-06T05:46:43;15.90;91.70
15239;DHT22;7722;53.274;9.500;2022-09-06T05:49:12;15.90;91.50
15239;DHT22;7722;53.274;9.500;2022-09-06T05:51:39;15.90;91.70
15239;DHT22;7722;53.274;9.500;2022-09-06T05:54:06;15.90;91.80
15239;DHT22;7722;53.274;9.500;2022-09-06T05:56:37;15.90;91.40
15239;DHT22;7722;53.274;9.500;2022-09-06T05:59:04;16.00;91.30
15239;DHT22;7722;53.274;9.500;2022-09-06T06:01:31;16.00;91.40
15239;DHT22;7722;53.274;9.500;2022-09-06T06:03:59;16.00;91.20
15239;DHT22;7722;53.274;9.500;2022-09-06T06:06:28;16.00;91.30
15239;DHT22;7722;53.274;9.500;2022-09-06T06:08:56;16.00;91.20
15239;DHT22;7722;53.274;9.500;2022-09-06T06:11:24;16.10;90.90
15239;DHT22;7722;53.274;9.500;2022-09-06T06:13:53;16.10;91.60
15239;DHT22;7722;53.274;9.500;2022-09-06T06:16:21;16.10;91.10
15239;DHT22;7722;53.274;9.500;2022-09-06T06:18:49;16.00;91.10
15239;DHT22;7722;53.274;9.500;2022-09-06T06:21:18;16.10;91.10
15239;DHT22;7722;53.274;9.500;2022-09-06T06:23:49;16.20;90.80
15239;DHT22;7722;53.274;9.500;2022-09-06T06:26:16;16.10;90.60
15239;DHT22;7722;53.274;9.500;2022-09-06T06:28:43;16.20;90.50
15239;DHT22;7722;53.274;9.500;2022-09-06T06:31:12;16.20;90.40
15239;DHT22;7722;53.274;9.500;2022-09-06T06:33:39;16.30;90.40
15239;DHT22;7722;53.274;9.500;2022-09-06T06:36:18;16.20;90.40
15239;DHT22;7722;53.274;9.500;2022-09-06T06:38:49;16.20;90.20
15239;DHT22;7722;53.274;9.500;2022-09-06T06:41:18;16.20;90.30
15239;DHT22;7722;53.274;9.500;2022-09-06T06:43:46;16.20;90.30
15239;DHT22;7722;53.274;9.500;2022-09-06T06:46:16;16.30;90.50
15239;DHT22;7722;53.274;9.500;2022-09-06T06:48:44;16.30;90.60
15239;DHT22;7722;53.274;9.500;2022-09-06T06:51:12;16.30;90.30
15239;DHT22;7722;53.274;9.500;2022-09-06T06:53:40;16.30;90.10
15239;DHT22;7722;53.274;9.500;2022-09-06T06:56:15;16.40;90.20
15239;DHT22;7722;53.274;9.500;2022-09-06T06:58:42;16.40;90.00
15239;DHT22;7722;53.274;9.500;2022-09-06T07:01:09;16.50;90.00
15239;DHT22;7722;53.274;9.500;2022-09-06T07:03:37;16.50;90.00
15239;DHT22;7722;53.274;9.500;2022-09-06T07:06:05;16.50;90.10
15239;DHT22;7722;53.274;9.500;2022-09-06T07:08:33;16.50;90.10
15239;DHT22;7722;53.274;9.500;2022-09-06T07:11:01;16.50;89.70
15239;DHT22;7722;53.274;9.500;2022-09-06T07:13:28;16.50;89.50
15239;DHT22;7722;53.274;9.500;2022-09-06T07:16:06;16.50;89.50
15239;DHT22;7722;53.274;9.500;2022-09-06T07:18:34;16.50;89.60
15239;DHT22;7722;53.274;9.500;2022-09-06T07:21:03;16.50;89.20
15239;DHT22;7722;53.274;9.500;2022-09-06T07:23:30;16.50;90.00
15239;DHT22;7722;53.274;9.500;2022-09-06T07:25:57;16.60;90.10
15239;DHT22;7722;53.274;9.500;2022-09-06T07:28:24;16.70;89.60
15239;DHT22;7722;53.274;9.500;2022-09-06T07:30:52;16.70;89.30
15239;DHT22;7722;53.274;9.500;2022-09-06T07:33:20;16.60;89.40
15239;DHT22;7722;53.274;9.500;2022-09-06T07:35:58;16.60;89.20
15239;DHT22;7722;53.274;9.500;2022-09-06T07:38:27;16.70;90.00
15239;DHT22;7722;53.274;9.500;2022-09-06T07:40:56;16.70;89.70
15239;DHT22;7722;53.274;9.500;2022-09-06T07:43:23;16.60;89.50
15239;DHT22;7722;53.274;9.500;2022-09-06T07:45:58;16.60;90.00
15239;DHT22;7722;53.274;9.500;2022-09-06T07:48:27;16.60;89.50
15239;DHT22;7722;53.274;9.500;2022-09-06T07:51:01;16.70;89.90
15239;DHT22;7722;53.274;9.500;2022-09-06T07:53:29;16.60;89.80
15239;DHT22;7722;53.274;9.500;2022-09-06T07:55:56;16.80;89.70
15239;DHT22;7722;53.274;9.500;2022-09-06T07:58:24;16.80;89.90
15239;DHT22;7722;53.274;9.500;2022-09-06T08:00:51;16.80;90.20
15239;DHT22;7722;53.274;9.500;2022-09-06T08:03:18;16.90;90.20
15239;DHT22;7722;53.274;9.500;2022-09-06T08:05:48;16.90;90.00
15239;DHT22;7722;53.274;9.500;2022-09-06T08:08:15;17.00;89.20
15239;DHT22;7722;53.274;9.500;2022-09-06T08:10:43;17.10;89.40
15239;DHT22;7722;53.274;9.500;2022-09-06T08:13:15;17.00;89.20
15239;DHT22;7722;53.274;9.500;2022-09-06T08:15:42;17.10;89.50
15239;DHT22;7722;53.274;9.500;2022-09-06T08:18:09;17.10;89.40
15239;DHT22;7722;53.274;9.500;2022-09-06T08:20:36;17.20;89.00
15239;DHT22;7722;53.274;9.500;2022-09-06T08:23:08;17.20;88.40
15239;DHT22;7722;53.274;9.500;2022-09-06T08:25:35;17.30;89.00
15239;DHT22;7722;53.274;9.500;2022-09-06T08:28:03;17.30;88.50
15239;DHT22;7722;53.274;9.500;2022-09-06T08:30:31;17.30;89.10
15239;DHT22;7722;53.274;9.500;2022-09-06T08:33:00;17.50;88.40
15239;DHT22;7722;53.274;9.500;2022-09-06T08:35:27;17.50;88.00
15239;DHT22;7722;53.274;9.500;2022-09-06T08:37:56;17.40;87.50
15239;DHT22;7722;53.274;9.500;2022-09-06T08:40:23;17.50;88.30
15239;DHT22;7722;53.274;9.500;2022-09-06T08:42:51;17.50;87.70
15239;DHT22;7722;53.274;9.500;2022-09-06T08:45:19;17.40;87.50
15239;DHT22;7722;53.274;9.500;2022-09-06T08:47:47;17.60;87.90
15239;DHT22;7722;53.274;9.500;2022-09-06T08:50:15;17.60;87.00
15239;DHT22;7722;53.274;9.500;2022-09-06T08:52:49;17.70;87.40
15239;DHT22;7722;53.274;9.500;2022-09-06T08:55:29;17.80;87.60
15239;DHT22;7722;53.274;9.500;2022-09-06T08:58:15;18.10;87.60
15239;DHT22;7722;53.274;9.500;2022-09-06T09:00:50;18.40;87.00
15239;DHT22;7722;53.274;9.500;2022-09-06T09:03:20;18.60;87.20
15239;DHT22;7722;53.274;9.500;2022-09-06T09:05:51;18.40;86.00
15239;DHT22;7722;53.274;9.500;2022-09-06T09:08:22;18.30;86.50
15239;DHT22;7722;53.274;9.500;2022-09-06T09:10:55;18.20;86.80
15239;DHT22;7722;53.274;9.500;2022-09-06T09:13:28;18.20;87.30
15239;DHT22;7722;53.274;9.500;2022-09-06T09:15:58;18.20;87.20
15239;DHT22;7722;53.274;9.500;2022-09-06T09:18:28;18.40;86.50
15239;DHT22;7722;53.274;9.500;2022-09-06T09:20:57;18.50;86.70
15239;DHT22;7722;53.274;9.500;2022-09-06T09:23:25;18.40;86.10
15239;DHT22;7722;53.274;9.500;2022-09-06T09:25:54;18.50;87.00
15239;DHT22;7722;53.274;9.500;2022-09-06T09:28:24;18.50;86.70
15239;DHT22;7722;53.274;9.500;2022-09-06T09:30:53;18.70;87.10
15239;DHT22;7722;53.274;9.500;2022-09-06T09:33:24;19.00;86.40
15239;DHT22;7722;53.274;9.500;2022-09-06T09:35:53;19.20;86.30
15239;DHT22;7722;53.274;9.500;2022-09-06T09:38:23;19.30;86.20
15239;DHT22;7722;53.274;9.500;2022-09-06T09:40:53;19.40;84.60
15239;DHT22;7722;53.274;9.500;2022-09-06T09:43:22;19.70;85.80
15239;DHT22;7722;53.274;9.500;2022-09-06T09:46:12;19.80;85.20
15239;DHT22;7722;53.274;9.500;2022-09-06T09:48:44;19.80;84.70
15239;DHT22;7722;53.274;9.500;2022-09-06T09:51:19;19.80;84.00
15239;DHT22;7722;53.274;9.500;2022-09-06T09:56:26;19.90;85.10
15239;DHT22;7722;53.274;9.500;2022-09-06T09:58:55;19.80;84.20
15239;DHT22;7722;53.274;9.500;2022-09-06T10:01:26;19.80;84.40
15239;DHT22;7722;53.274;9.500;2022-09-06T10:04:05;19.80;84.40
15239;DHT22;7722;53.274;9.500;2022-09-06T10:06:33;19.70;84.70
15239;DHT22;7722;53.274;9.500;2022-09-06T10:09:12;19.80;86.10
15239;DHT22;7722;53.274;9.500;2022-09-06T10:11:50;19.60;85.70
15239;DHT22;7722;53.274;9.500;2022-09-06T10:14:26;19.80;86.20
15239;DHT22;7722;53.274;9.500;2022-09-06T10:16:54;19.80;85.40
15239;DHT22;7722;53.274;9.500;2022-09-06T10:19:36;19.80;85.00
15239;DHT22;7722;53.274;9.500;2022-09-06T10:25:13;19.90;84.90
15239;DHT22;7722;53.274;9.500;2022-09-06T10:27:48;19.90;86.00
15239;DHT22;7722;53.274;9.500;2022-09-06T10:30:40;20.00;85.70
15239;DHT22;7722;53.274;9.500;2022-09-06T10:33:18;20.10;85.90
15239;DHT22;7722;53.274;9.500;2022-09-06T10:38:35;20.10;86.50
15239;DHT22;7722;53.274;9.500;2022-09-06T10:41:21;20.00;86.80
15239;DHT22;7722;53.274;9.500;2022-09-06T10:43:58;20.00;86.80
15239;DHT22;7722;53.274;9.500;2022-09-06T10:46:33;20.10;87.30
15239;DHT22;7722;53.274;9.500;2022-09-06T10:49:01;20.20;88.10
15239;DHT22;7722;53.274;9.500;2022-09-06T10:51:33;20.20;88.50
15239;DHT22;7722;53.274;9.500;2022-09-06T10:54:05;20.20;88.10
15239;DHT22;7722;53.274;9.500;2022-09-06T10:56:39;20.10;88.30
15239;DHT22;7722;53.274;9.500;2022-09-06T10:59:15;20.10;88.40
15239;DHT22;7722;53.274;9.500;2022-09-06T11:01:54;20.20;88.60
15239;DHT22;7722;53.274;9.500;2022-09-06T11:04:28;20.50;88.20
15239;DHT22;7722;53.274;9.500;2022-09-06T11:07:01;20.40;87.80
15239;DHT22;7722;53.274;9.500;2022-09-06T11:09:33;20.60;88.00
15239;DHT22;7722;53.274;9.500;2022-09-06T11:12:06;20.70;88.50
15239;DHT22;7722;53.274;9.500;2022-09-06T11:14:36;20.70;90.10
15239;DHT22;7722;53.274;9.500;2022-09-06T11:17:07;20.50;90.80
15239;DHT22;7722;53.274;9.500;2022-09-06T11:19:40;20.40;91.60
15239;DHT22;7722;53.274;9.500;2022-09-06T11:22:32;20.20;91.60
15239;DHT22;7722;53.274;9.500;2022-09-06T11:28:07;20.00;92.50
15239;DHT22;7722;53.274;9.500;2022-09-06T11:30:35;19.80;93.20
15239;DHT22;7722;53.274;9.500;2022-09-06T11:33:12;19.90;93.50
15239;DHT22;7722;53.274;9.500;2022-09-06T11:35:43;20.00;92.90
15239;DHT22;7722;53.274;9.500;2022-09-06T11:38:20;20.00;92.80
15239;DHT22;7722;53.274;9.500;2022-09-06T11:40:53;19.90;92.60
15239;DHT22;7722;53.274;9.500;2022-09-06T11:43:42;19.80;92.90
15239;DHT22;7722;53.274;9.500;2022-09-06T11:46:09;19.80;93.00
15239;DHT22;7722;53.274;9.500;2022-09-06T11:49:02;19.70;93.00
15239;DHT22;7722;53.274;9.500;2022-09-06T11:51:32;19.80;93.00
15239;DHT22;7722;53.274;9.500;2022-09-06T11:54:05;19.90;92.90
15239;DHT22;7722;53.274;9.500;2022-09-06T11:56:39;19.80;93.10
15239;DHT22;7722;53.274;9.500;2022-09-06T11:59:16;19.80;93.50
15239;DHT22;7722;53.274;9.500;2022-09-06T12:01:59;19.80;93.40
15239;DHT22;7722;53.274;9.500;2022-09-06T12:07:33;19.90;93.80
15239;DHT22;7722;53.274;9.500;2022-09-06T12:10:01;19.80;93.90
15239;DHT22;7722;53.274;9.500;2022-09-06T12:12:49;19.70;93.90
15239;DHT22;7722;53.274;9.500;2022-09-06T12:15:23;19.70;94.20
15239;DHT22;7722;53.274;9.500;2022-09-06T12:17:51;19.70;94.20
15239;DHT22;7722;53.274;9.500;2022-09-06T12:23:41;19.70;94.20
15239;DHT22;7722;53.274;9.500;2022-09-06T12:26:09;19.60;94.20
15239;DHT22;7722;53.274;9.500;2022-09-06T12:28:46;19.80;94.40
15239;DHT22;7722;53.274;9.500;2022-09-06T12:31:36;19.80;94.40
15239;DHT22;7722;53.274;9.500;2022-09-06T12:34:22;19.80;94.50
15239;DHT22;7722;53.274;9.500;2022-09-06T12:36:55;19.80;94.30
15239;DHT22;7722;53.274;9.500;2022-09-06T12:39:24;19.80;94.40
15239;DHT22;7722;53.274;9.500;2022-09-06T12:41:55;19.80;94.40
15239;DHT22;7722;53.274;9.500;2022-09-06T12:44:33;19.80;94.30
15239;DHT22;7722;53.274;9.500;2022-09-06T12:47:08;19.80;94.10
15239;DHT22;7722;53.274;9.500;2022-09-06T12:49:36;19.70;94.20
15239;DHT22;7722;53.274;9.500;2022-09-06T12:52:08;19.70;94.30
15239;DHT22;7722;53.274;9.500;2022-09-06T12:54:48;19.70;94.30
15239;DHT22;7722;53.274;9.500;2022-09-06T12:57:20;19.80;94.30
15239;DHT22;7722;53.274;9.500;2022-09-06T12:59:51;19.80;94.40
15239;DHT22;7722;53.274;9.500;2022-09-06T13:02:24;19.80;94.40
15239;DHT22;7722;53.274;9.500;2022-09-06T13:04:57;19.80;94.40
15239;DHT22;7722;53.274;9.500;2022-09-06T13:07:27;19.70;94.40
15239;DHT22;7722;53.274;9.500;2022-09-06T13:09:57;19.70;94.20
15239;DHT22;7722;53.274;9.500;2022-09-06T13:12:26;19.70;94.30
15239;DHT22;7722;53.274;9.500;2022-09-06T13:14:55;19.90;94.40
15239;DHT22;7722;53.274;9.500;2022-09-06T13:17:27;19.90;94.10
15239;DHT22;7722;53.274;9.500;2022-09-06T13:19:54;20.10;93.90
15239;DHT22;7722;53.274;9.500;2022-09-06T13:22:43;20.20;93.60
15239;DHT22;7722;53.274;9.500;2022-09-06T13:25:21;20.40;93.00
15239;DHT22;7722;53.274;9.500;2022-09-06T13:27:50;20.40;92.70
15239;DHT22;7722;53.274;9.500;2022-09-06T13:30:36;20.70;92.80
15239;DHT22;7722;53.274;9.500;2022-09-06T13:33:07;20.70;92.60
15239;DHT22;7722;53.274;9.500;2022-09-06T13:35:50;20.80;92.40
15239;DHT22;7722;53.274;9.500;2022-09-06T13:38:20;20.90;92.20
15239;DHT22;7722;53.274;9.500;2022-09-06T13:40:49;20.60;92.00
15239;DHT22;7722;53.274;9.500;2022-09-06T13:43:21;20.50;92.30
15239;DHT22;7722;53.274;9.500;2022-09-06T13:46:02;20.50;92.50
15239;DHT22;7722;53.274;9.500;2022-09-06T13:48:29;20.50;92.20
15239;DHT22;7722;53.274;9.500;2022-09-06T13:50:56;20.50;92.10
15239;DHT22;7722;53.274;9.500;2022-09-06T13:53:24;20.50;92.20
15239;DHT22;7722;53.274;9.500;2022-09-06T13:55:52;20.40;92.20
15239;DHT22;7722;53.274;9.500;2022-09-06T13:58:19;20.40;92.30
15239;DHT22;7722;53.274;9.500;2022-09-06T14:00:46;20.60;92.50
15239;DHT22;7722;53.274;9.500;2022-09-06T14:03:19;20.70;92.30
15239;DHT22;7722;53.274;9.500;2022-09-06T14:05:47;20.60;92.20
15239;DHT22;7722;53.274;9.500;2022-09-06T14:08:14;20.60;92.30
15239;DHT22;7722;53.274;9.500;2022-09-06T14:10:41;20.80;92.30
15239;DHT22;7722;53.274;9.500;2022-09-06T14:13:12;21.20;92.30
15239;DHT22;7722;53.274;9.500;2022-09-06T14:15:39;20.80;91.80
15239;DHT22;7722;53.274;9.500;2022-09-06T14:18:06;21.00;91.40
15239;DHT22;7722;53.274;9.500;2022-09-06T14:20:33;20.90;91.50
15239;DHT22;7722;53.274;9.500;2022-09-06T14:23:00;20.70;91.70
15239;DHT22;7722;53.274;9.500;2022-09-06T14:25:27;20.70;91.70
15239;DHT22;7722;53.274;9.500;2022-09-06T14:27:54;21.20;91.50
15239;DHT22;7722;53.274;9.500;2022-09-06T14:30:23;21.40;91.20
15239;DHT22;7722;53.274;9.500;2022-09-06T14:32:50;21.40;90.80
15239;DHT22;7722;53.274;9.500;2022-09-06T14:35:17;21.30;91.20
15239;DHT22;7722;53.274;9.500;2022-09-06T14:37:44;21.40;91.30
15239;DHT22;7722;53.274;9.500;2022-09-06T14:40:11;21.50;91.00
15239;DHT22;7722;53.274;9.500;2022-09-06T14:42:38;21.80;91.40
15239;DHT22;7722;53.274;9.500;2022-09-06T14:45:06;22.40;90.60
15239;DHT22;7722;53.274;9.500;2022-09-06T14:47:35;22.60;90.20
15239;DHT22;7722;53.274;9.500;2022-09-06T14:50:02;22.60;90.40
15239;DHT22;7722;53.274;9.500;2022-09-06T14:52:29;22.50;90.30
15239;DHT22;7722;53.274;9.500;2022-09-06T14:54:56;22.60;90.20
15239;DHT22;7722;53.274;9.500;2022-09-06T14:57:23;22.70;90.40
15239;DHT22;7722;53.274;9.500;2022-09-06T14:59:50;22.30;90.60
15239;DHT22;7722;53.274;9.500;2022-09-06T15:02:18;22.20;90.90
15239;DHT22;7722;53.274;9.500;2022-09-06T15:04:46;22.10;90.90
15239;DHT22;7722;53.274;9.500;2022-09-06T15:07:14;21.80;91.30
15239;DHT22;7722;53.274;9.500;2022-09-06T15:09:41;21.60;91.70
15239;DHT22;7722;53.274;9.500;2022-09-06T15:12:08;21.60;92.00
15239;DHT22;7722;53.274;9.500;2022-09-06T15:14:35;21.90;92.10
15239;DHT22;7722;53.274;9.500;2022-09-06T15:17:03;21.90;92.00
15239;DHT22;7722;53.274;9.500;2022-09-06T15:19:33;22.00;91.70
15239;DHT22;7722;53.274;9.500;2022-09-06T15:22:04;21.70;92.10
15239;DHT22;7722;53.274;9.500;2022-09-06T15:24:31;21.80;92.30
15239;DHT22;7722;53.274;9.500;2022-09-06T15:26:59;22.00;92.50
15239;DHT22;7722;53.274;9.500;2022-09-06T15:29:26;22.10;92.30
15239;DHT22;7722;53.274;9.500;2022-09-06T15:31:53;22.10;92.20
15239;DHT22;7722;53.274;9.500;2022-09-06T15:34:23;21.90;92.40
15239;DHT22;7722;53.274;9.500;2022-09-06T15:36:51;21.90;92.20
15239;DHT22;7722;53.274;9.500;2022-09-06T15:39:20;21.90;92.60
15239;DHT22;7722;53.274;9.500;2022-09-06T15:41:49;22.10;92.70
15239;DHT22;7722;53.274;9.500;2022-09-06T15:44:17;22.00;92.60
15239;DHT22;7722;53.274;9.500;2022-09-06T15:46:47;21.80;92.70
15239;DHT22;7722;53.274;9.500;2022-09-06T15:49:17;21.60;93.00
15239;DHT22;7722;53.274;9.500;2022-09-06T15:51:45;21.50;93.40
15239;DHT22;7722;53.274;9.500;2022-09-06T15:54:14;21.60;93.30
15239;DHT22;7722;53.274;9.500;2022-09-06T15:56:43;21.70;93.40
15239;DHT22;7722;53.274;9.500;2022-09-06T15:59:11;21.80;93.10
15239;DHT22;7722;53.274;9.500;2022-09-06T16:01:38;21.80;93.20
15239;DHT22;7722;53.274;9.500;2022-09-06T16:04:06;21.80;93.00
15239;DHT22;7722;53.274;9.500;2022-09-06T16:06:35;21.60;93.10
15239;DHT22;7722;53.274;9.500;2022-09-06T16:09:05;21.60;93.40
15239;DHT22;7722;53.274;9.500;2022-09-06T16:11:33;21.60;93.70
15239;DHT22;7722;53.274;9.500;2022-09-06T16:14:03;21.60;93.50
15239;DHT22;7722;53.274;9.500;2022-09-06T16:16:30;21.60;93.50
15239;DHT22;7722;53.274;9.500;2022-09-06T16:18:59;21.40;93.80
15239;DHT22;7722;53.274;9.500;2022-09-06T16:21:28;21.40;93.90
15239;DHT22;7722;53.274;9.500;2022-09-06T16:23:57;21.30;94.00
15239;DHT22;7722;53.274;9.500;2022-09-06T16:26:26;21.10;94.30
15239;DHT22;7722;53.274;9.500;2022-09-06T16:28:54;21.10;94.20